sensor_id;sensor_type;location;lat;lon;timestamp;temperature;humidity
36816;DHT22;22760;51.910;4.474;2022-09-09T00:01:04;15.80;99.90
36816;DHT22;22760;51.910;4.474;2022-09-09T00:03:40;15.80;99.90
36816;DHT22;22760;51.910;4.474;2022-09-09T00:06:16;15.80;99.90
36816;DHT22;22760;51.910;4.474;2022-09-09T00:08:54;15.70;99.90
36816;DHT22;22760;51.910;4.474;2022-09-09T00:11:26;15.70;99.90
36816;DHT22;22760;51.910;4.474;2022-09-09T00:13:57;15.70;99.90
36816;DHT22;22760;51.910;4.474;2022-09-09T00:16:28;15.60;99.90
36816;DHT22;22760;51.910;4.474;2022-09-09T00:19:03;15.70;99.90
36816;DHT22;22760;51.910;4.474;2022-09-09T00:21:33;15.60;99.90
36816;DHT22;22760;51.910;4.474;2022-09-09T00:24:08;15.70;99.90
36816;DHT22;22760;51.910;4.474;2022-09-09T00:26:42;15.70;99.90
36816;DHT22;22760;51.910;4.474;2022-09-09T00:29:13;15.60;99.90
36816;DHT22;22760;51.910;4.474;2022-09-09T00:31:41;15.60;99.90
36816;DHT22;22760;51.910;4.474;2022-09-09T00:34:13;15.60;99.90
36816;DHT22;22760;51.910;4.474;2022-09-09T00:36:40;15.60;99.90
36816;DHT22;22760;51.910;4.474;2022-09-09T00:39:13;15.70;99.90
36816;DHT22;22760;51.910;4.474;2022-09-09T00:41:53;15.60;99.90
36816;DHT22;22760;51.910;4.474;2022-09-09T00:44:30;15.60;99.90
36816;DHT22;22760;51.910;4.474;2022-09-09T00:50:32;15.60;99.90
36816;DHT22;22760;51.910;4.474;2022-09-09T00:53:09;15.60;99.90
36816;DHT22;22760;51.910;4.474;2022-09-09T00:55:44;15.60;99.90
36816;DHT22;22760;51.910;4.474;2022-09-09T00:58:13;15.60;99.90
36816;DHT22;22760;51.910;4.474;2022-09-09T01:00:43;15.60;99.90
36816;DHT22;22760;51.910;4.474;2022-09-09T01:03:25;15.60;99.90
36816;DHT22;22760;51.910;4.474;2022-09-09T01:06:02;15.60;99.90
36816;DHT22;22760;51.910;4.474;2022-09-09T01:08:43;15.60;99.90
36816;DHT22;22760;51.910;4.474;2022-09-09T01:11:20;15.60;99.90
36816;DHT22;22760;51.910;4.474;2022-09-09T01:13:52;15.70;99.90
36816;DHT22;22760;51.910;4.474;2022-09-09T01:16:20;15.70;99.90
36816;DHT22;22760;51.910;4.474;2022-09-09T01:18:51;15.70;99.90
36816;DHT22;22760;51.910;4.474;2022-09-09T01:21:27;15.70;99.90
36816;DHT22;22760;51.910;4.474;2022-09-09T01:24:16;15.70;99.90
36816;DHT22;22760;51.910;4.474;2022-09-09T01:26:48;15.80;99.90
36816;DHT22;22760;51.910;4.474;2022-09-09T01:29:17;15.70;99.90
36816;DHT22;22760;51.910;4.474;2022-09-09T01:31:53;15.70;99.90
36816;DHT22;22760;51.910;4.474;2022-09-09T01:34:21;15.70;99.90
36816;DHT22;22760;51.910;4.474;2022-09-09T01:36:52;15.60;99.90
36816;DHT22;22760;51.910;4.474;2022-09-09T01:39:22;15.60;99.90
36816;DHT22;22760;51.910;4.474;2022-09-09T01:41:50;15.60;99.90
36816;DHT22;22760;51.910;4.474;2022-09-09T01:44:17;15.60;99.90
36816;DHT22;22760;51.910;4.474;2022-09-09T01:46:44;15.60;99.90
36816;DHT22;22760;51.910;4.474;2022-09-09T01:49:11;15.60;99.90
36816;DHT22;22760;51.910;4.474;2022-09-09T01:51:39;15.60;99.90
36816;DHT22;22760;51.910;4.474;2022-09-09T01:54:07;15.60;99.90
36816;DHT22;22760;51.910;4.474;2022-09-09T01:56:42;15.60;99.90
36816;DHT22;22760;51.910;4.474;2022-09-09T01:59:21;15.60;99.90
36816;DHT22;22760;51.910;4.474;2022-09-09T02:01:59;15.60;99.90
36816;DHT22;22760;51.910;4.474;2022-09-09T02:04:37;15.60;99.90
36816;DHT22;22760;51.910;4.474;2022-09-09T02:07:11;15.70;99.90
36816;DHT22;22760;51.910;4.474;2022-09-09T02:09:44;15.70;99.90
36816;DHT22;22760;51.910;4.474;2022-09-09T02:12:16;15.60;99.90
36816;DHT22;22760;51.910;4.474;2022-09-09T02:14:49;15.60;99.90
36816;DHT22;22760;51.910;4.474;2022-09-09T02:17:21;15.60;99.90
36816;DHT22;22760;51.910;4.474;2022-09-09T02:19:54;15.60;99.90
36816;DHT22;22760;51.910;4.474;2022-09-09T02:22:24;15.60;99.90
36816;DHT22;22760;51.910;4.474;2022-09-09T02:24:53;15.60;99.90
36816;DHT22;22760;51.910;4.474;2022-09-09T02:27:24;15.70;99.90
36816;DHT22;22760;51.910;4.474;2022-09-09T02:29:53;15.80;99.90
36816;DHT22;22760;51.910;4.474;2022-09-09T02:32:23;15.70;99.90
36816;DHT22;22760;51.910;4.474;2022-09-09T02:34:53;15.70;99.90
36816;DHT22;22760;51.910;4.474;2022-09-09T02:37:24;15.70;99.90
36816;DHT22;22760;51.910;4.474;2022-09-09T02:39:53;15.70;99.90
36816;DHT22;22760;51.910;4.474;2022-09-09T02:42:20;15.70;99.90
36816;DHT22;22760;51.910;4.474;2022-09-09T02:44:47;15.70;99.90
36816;DHT22;22760;51.910;4.474;2022-09-09T02:47:26;15.70;99.90
36816;DHT22;22760;51.910;4.474;2022-09-09T02:50:05;15.80;99.90
36816;DHT22;22760;51.910;4.474;2022-09-09T02:52:42;15.80;99.90
36816;DHT22;22760;51.910;4.474;2022-09-09T02:55:17;15.80;99.90
36816;DHT22;22760;51.910;4.474;2022-09-09T02:57:47;15.80;99.90
36816;DHT22;22760;51.910;4.474;2022-09-09T03:00:14;15.70;99.90
36816;DHT22;22760;51.910;4.474;2022-09-09T03:02:43;15.70;99.90
36816;DHT22;22760;51.910;4.474;2022-09-09T03:05:10;15.80;99.90
36816;DHT22;22760;51.910;4.474;2022-09-09T03:07:38;15.70;99.90
36816;DHT22;22760;51.910;4.474;2022-09-09T03:10:06;15.70;99.90
36816;DHT22;22760;51.910;4.474;2022-09-09T03:12:33;15.70;99.90
36816;DHT22;22760;51.910;4.474;2022-09-09T03:15:00;15.70;99.90
36816;DHT22;22760;51.910;4.474;2022-09-09T03:17:26;15.70;99.90
36816;DHT22;22760;51.910;4.474;2022-09-09T03:19:55;15.70;99.90
36816;DHT22;22760;51.910;4.474;2022-09-09T03:22:23;15.70;99.90
36816;DHT22;22760;51.910;4.474;2022-09-09T03:24:50;15.70;99.90
36816;DHT22;22760;51.910;4.474;2022-09-09T03:27:17;15.70;99.90
36816;DHT22;22760;51.910;4.474;2022-09-09T03:29:45;15.60;99.90
36816;DHT22;22760;51.910;4.474;2022-09-09T03:32:12;15.60;99.90
36816;DHT22;22760;51.910;4.474;2022-09-09T03:34:43;15.60;99.90
36816;DHT22;22760;51.910;4.474;2022-09-09T03:37:11;15.70;99.90
36816;DHT22;22760;51.910;4.474;2022-09-09T03:39:37;15.60;99.90
36816;DHT22;22760;51.910;4.474;2022-09-09T03:42:04;15.60;99.90
36816;DHT22;22760;51.910;4.474;2022-09-09T03:44:31;15.60;99.90
36816;DHT22;22760;51.910;4.474;2022-09-09T03:46:58;15.60;99.90
36816;DHT22;22760;51.910;4.474;2022-09-09T03:49:26;15.60;99.90
36816;DHT22;22760;51.910;4.474;2022-09-09T03:51:54;15.60;99.90
36816;DHT22;22760;51.910;4.474;2022-09-09T03:54:23;15.50;99.90
36816;DHT22;22760;51.910;4.474;2022-09-09T03:56:50;15.60;99.90
36816;DHT22;22760;51.910;4.474;2022-09-09T03:59:17;15.60;99.90
36816;DHT22;22760;51.910;4.474;2022-09-09T04:01:44;15.60;99.90
36816;DHT22;22760;51.910;4.474;2022-09-09T04:04:10;15.60;99.90
36816;DHT22;22760;51.910;4.474;2022-09-09T04:06:37;15.60;99.90
36816;DHT22;22760;51.910;4.474;2022-09-09T04:09:04;15.60;99.90
36816;DHT22;22760;51.910;4.474;2022-09-09T04:11:32;15.60;99.90
36816;DHT22;22760;51.910;4.474;2022-09-09T04:13:59;15.60;99.90
36816;DHT22;22760;51.910;4.474;2022-09-09T04:16:26;15.50;99.90
36816;DHT22;22760;51.910;4.474;2022-09-09T04:18:53;15.50;99.90
36816;DHT22;22760;51.910;4.474;2022-09-09T04:21:21;15.60;99.90
36816;DHT22;22760;51.910;4.474;2022-09-09T04:23:48;15.60;99.90
36816;DHT22;22760;51.910;4.474;2022-09-09T04:26:15;15.50;99.90
36816;DHT22;22760;51.910;4.474;2022-09-09T04:28:43;15.60;99.90
36816;DHT22;22760;51.910;4.474;2022-09-09T04:31:14;15.50;99.90
36816;DHT22;22760;51.910;4.474;2022-09-09T04:33:42;15.60;99.90
36816;DHT22;22760;51.910;4.474;2022-09-09T04:36:09;15.50;99.90
36816;DHT22;22760;51.910;4.474;2022-09-09T04:38:36;15.40;99.90
36816;DHT22;22760;51.910;4.474;2022-09-09T04:41:03;15.40;99.90
36816;DHT22;22760;51.910;4.474;2022-09-09T04:43:30;15.40;99.90
36816;DHT22;22760;51.910;4.474;2022-09-09T04:45:58;15.40;99.90
36816;DHT22;22760;51.910;4.474;2022-09-09T04:48:25;15.40;99.90
36816;DHT22;22760;51.910;4.474;2022-09-09T04:50:56;15.30;99.90
36816;DHT22;22760;51.910;4.474;2022-09-09T04:53:23;15.30;99.90
36816;DHT22;22760;51.910;4.474;2022-09-09T04:55:51;15.30;99.90
36816;DHT22;22760;51.910;4.474;2022-09-09T04:58:18;15.30;99.90
36816;DHT22;22760;51.910;4.474;2022-09-09T05:00:47;15.30;99.90
36816;DHT22;22760;51.910;4.474;2022-09-09T05:03:15;15.30;99.90
36816;DHT22;22760;51.910;4.474;2022-09-09T05:05:42;15.30;99.90
36816;DHT22;22760;51.910;4.474;2022-09-09T05:08:09;15.20;99.90
36816;DHT22;22760;51.910;4.474;2022-09-09T05:10:37;15.20;99.90
36816;DHT22;22760;51.910;4.474;2022-09-09T05:13:05;15.30;99.90
36816;DHT22;22760;51.910;4.474;2022-09-09T05:15:33;15.30;99.90
36816;DHT22;22760;51.910;4.474;2022-09-09T05:18:01;15.20;99.90
36816;DHT22;22760;51.910;4.474;2022-09-09T05:20:29;15.20;99.90
36816;DHT22;22760;51.910;4.474;2022-09-09T05:22:56;15.20;99.90
36816;DHT22;22760;51.910;4.474;2022-09-09T05:25:23;15.20;99.90
36816;DHT22;22760;51.910;4.474;2022-09-09T05:27:51;15.20;99.90
36816;DHT22;22760;51.910;4.474;2022-09-09T05:30:19;15.20;99.90
36816;DHT22;22760;51.910;4.474;2022-09-09T05:32:45;15.20;99.90
36816;DHT22;22760;51.910;4.474;2022-09-09T05:35:13;15.30;99.90
36816;DHT22;22760;51.910;4.474;2022-09-09T05:37:41;15.30;99.90
36816;DHT22;22760;51.910;4.474;2022-09-09T05:40:08;15.30;99.90
36816;DHT22;22760;51.910;4.474;2022-09-09T05:42:36;15.40;99.90
36816;DHT22;22760;51.910;4.474;2022-09-09T05:45:05;15.40;99.90
36816;DHT22;22760;51.910;4.474;2022-09-09T05:47:33;15.40;99.90
36816;DHT22;22760;51.910;4.474;2022-09-09T05:49:59;15.50;99.90
36816;DHT22;22760;51.910;4.474;2022-09-09T05:52:26;15.60;99.90
36816;DHT22;22760;51.910;4.474;2022-09-09T05:54:55;15.60;99.90
36816;DHT22;22760;51.910;4.474;2022-09-09T05:57:22;15.60;99.90
36816;DHT22;22760;51.910;4.474;2022-09-09T05:59:49;15.60;99.90
36816;DHT22;22760;51.910;4.474;2022-09-09T06:02:16;15.70;99.90
36816;DHT22;22760;51.910;4.474;2022-09-09T06:04:43;15.70;99.90
36816;DHT22;22760;51.910;4.474;2022-09-09T06:07:09;15.80;99.90
36816;DHT22;22760;51.910;4.474;2022-09-09T06:09:36;15.80;99.90
36816;DHT22;22760;51.910;4.474;2022-09-09T06:12:05;15.80;99.90
36816;DHT22;22760;51.910;4.474;2022-09-09T06:14:32;15.80;99.90
36816;DHT22;22760;51.910;4.474;2022-09-09T06:16:59;15.90;99.90
36816;DHT22;22760;51.910;4.474;2022-09-09T06:19:25;15.90;99.90
36816;DHT22;22760;51.910;4.474;2022-09-09T06:21:52;15.90;99.90
36816;DHT22;22760;51.910;4.474;2022-09-09T06:24:20;16.00;99.90
36816;DHT22;22760;51.910;4.474;2022-09-09T06:26:47;16.10;99.90
36816;DHT22;22760;51.910;4.474;2022-09-09T06:29:15;16.20;99.90
36816;DHT22;22760;51.910;4.474;2022-09-09T06:31:42;16.20;99.90
36816;DHT22;22760;51.910;4.474;2022-09-09T06:34:09;16.10;99.90
36816;DHT22;22760;51.910;4.474;2022-09-09T06:36:38;16.10;99.90
36816;DHT22;22760;51.910;4.474;2022-09-09T06:39:05;16.10;99.90
36816;DHT22;22760;51.910;4.474;2022-09-09T06:41:33;16.20;99.90
36816;DHT22;22760;51.910;4.474;2022-09-09T06:44:00;16.20;99.90
36816;DHT22;22760;51.910;4.474;2022-09-09T06:46:29;16.30;99.90
36816;DHT22;22760;51.910;4.474;2022-09-09T06:48:57;16.30;99.90
36816;DHT22;22760;51.910;4.474;2022-09-09T06:51:26;16.30;99.90
36816;DHT22;22760;51.910;4.474;2022-09-09T06:53:54;16.30;99.90
36816;DHT22;22760;51.910;4.474;2022-09-09T06:56:23;16.40;99.90
36816;DHT22;22760;51.910;4.474;2022-09-09T06:58:51;16.30;99.90
36816;DHT22;22760;51.910;4.474;2022-09-09T07:01:19;16.30;99.90
36816;DHT22;22760;51.910;4.474;2022-09-09T07:03:49;16.40;99.90
36816;DHT22;22760;51.910;4.474;2022-09-09T07:06:18;16.40;99.90
36816;DHT22;22760;51.910;4.474;2022-09-09T07:08:49;16.40;99.90
36816;DHT22;22760;51.910;4.474;2022-09-09T07:11:16;16.50;99.90
36816;DHT22;22760;51.910;4.474;2022-09-09T07:13:43;16.40;99.90
36816;DHT22;22760;51.910;4.474;2022-09-09T07:16:11;16.40;99.90
36816;DHT22;22760;51.910;4.474;2022-09-09T07:18:39;16.30;99.90
36816;DHT22;22760;51.910;4.474;2022-09-09T07:21:10;16.30;99.90
36816;DHT22;22760;51.910;4.474;2022-09-09T07:23:37;16.30;99.90
36816;DHT22;22760;51.910;4.474;2022-09-09T07:26:08;16.20;99.90
36816;DHT22;22760;51.910;4.474;2022-09-09T07:28:35;16.30;99.90
36816;DHT22;22760;51.910;4.474;2022-09-09T07:31:02;16.30;99.90
36816;DHT22;22760;51.910;4.474;2022-09-09T07:33:31;16.30;99.90
36816;DHT22;22760;51.910;4.474;2022-09-09T07:36:05;16.30;99.90
36816;DHT22;22760;51.910;4.474;2022-09-09T07:38:37;16.30;99.90
36816;DHT22;22760;51.910;4.474;2022-09-09T07:41:06;16.30;99.90
36816;DHT22;22760;51.910;4.474;2022-09-09T07:43:34;16.30;99.90
36816;DHT22;22760;51.910;4.474;2022-09-09T07:46:01;16.30;99.90
36816;DHT22;22760;51.910;4.474;2022-09-09T07:48:29;16.40;99.90
36816;DHT22;22760;51.910;4.474;2022-09-09T07:51:07;16.40;99.90
36816;DHT22;22760;51.910;4.474;2022-09-09T07:53:37;16.40;99.90
36816;DHT22;22760;51.910;4.474;2022-09-09T07:56:06;16.50;99.90
36816;DHT22;22760;51.910;4.474;2022-09-09T07:58:35;16.60;99.90
36816;DHT22;22760;51.910;4.474;2022-09-09T08:01:07;16.60;99.90
36816;DHT22;22760;51.910;4.474;2022-09-09T08:03:34;16.60;99.90
36816;DHT22;22760;51.910;4.474;2022-09-09T08:06:02;16.50;99.90
36816;DHT22;22760;51.910;4.474;2022-09-09T08:08:29;16.50;99.90
36816;DHT22;22760;51.910;4.474;2022-09-09T08:11:03;16.60;99.90
36816;DHT22;22760;51.910;4.474;2022-09-09T08:13:33;16.60;99.90
36816;DHT22;22760;51.910;4.474;2022-09-09T08:16:07;16.60;99.90
36816;DHT22;22760;51.910;4.474;2022-09-09T08:18:34;16.60;99.90
36816;DHT22;22760;51.910;4.474;2022-09-09T08:21:06;16.70;99.90
36816;DHT22;22760;51.910;4.474;2022-09-09T08:23:33;16.70;99.90
36816;DHT22;22760;51.910;4.474;2022-09-09T08:26:06;16.70;99.90
36816;DHT22;22760;51.910;4.474;2022-09-09T08:28:34;16.70;99.90
36816;DHT22;22760;51.910;4.474;2022-09-09T08:31:09;16.60;99.90
36816;DHT22;22760;51.910;4.474;2022-09-09T08:33:36;16.60;99.90
36816;DHT22;22760;51.910;4.474;2022-09-09T08:36:04;16.60;99.90
36816;DHT22;22760;51.910;4.474;2022-09-09T08:38:32;16.60;99.90
36816;DHT22;22760;51.910;4.474;2022-09-09T08:41:11;16.60;99.90
36816;DHT22;22760;51.910;4.474;2022-09-09T08:43:43;16.50;99.90
36816;DHT22;22760;51.910;4.474;2022-09-09T08:46:17;16.60;99.90
36816;DHT22;22760;51.910;4.474;2022-09-09T08:48:52;16.50;99.90
36816;DHT22;22760;51.910;4.474;2022-09-09T08:51:26;16.40;99.90
36816;DHT22;22760;51.910;4.474;2022-09-09T08:53:54;16.50;99.90
36816;DHT22;22760;51.910;4.474;2022-09-09T08:56:27;16.50;99.90
36816;DHT22;22760;51.910;4.474;2022-09-09T08:59:00;16.60;99.90
36816;DHT22;22760;51.910;4.474;2022-09-09T09:01:41;16.60;99.90
36816;DHT22;22760;51.910;4.474;2022-09-09T09:04:21;16.60;99.90
36816;DHT22;22760;51.910;4.474;2022-09-09T09:07:01;16.60;99.90
36816;DHT22;22760;51.910;4.474;2022-09-09T09:09:35;16.60;99.90
36816;DHT22;22760;51.910;4.474;2022-09-09T09:12:15;16.70;99.90
36816;DHT22;22760;51.910;4.474;2022-09-09T09:14:43;16.70;99.90
36816;DHT22;22760;51.910;4.474;2022-09-09T09:17:12;16.70;99.90
36816;DHT22;22760;51.910;4.474;2022-09-09T09:19:41;16.70;99.90
36816;DHT22;22760;51.910;4.474;2022-09-09T09:22:16;16.80;99.90
36816;DHT22;22760;51.910;4.474;2022-09-09T09:24:51;16.70;99.90
36816;DHT22;22760;51.910;4.474;2022-09-09T09:27:26;16.60;99.90
36816;DHT22;22760;51.910;4.474;2022-09-09T09:29:56;16.60;99.90
36816;DHT22;22760;51.910;4.474;2022-09-09T09:32:24;16.50;99.90
36816;DHT22;22760;51.910;4.474;2022-09-09T09:34:55;16.50;99.90
36816;DHT22;22760;51.910;4.474;2022-09-09T09:37:26;16.40;99.90
36816;DHT22;22760;51.910;4.474;2022-09-09T09:39:54;16.40;99.90
36816;DHT22;22760;51.910;4.474;2022-09-09T09:42:22;16.40;99.90
36816;DHT22;22760;51.910;4.474;2022-09-09T09:44:49;16.50;99.90
36816;DHT22;22760;51.910;4.474;2022-09-09T09:47:20;16.50;99.90
36816;DHT22;22760;51.910;4.474;2022-09-09T09:49:52;16.60;99.90
36816;DHT22;22760;51.910;4.474;2022-09-09T09:52:22;16.60;99.90
36816;DHT22;22760;51.910;4.474;2022-09-09T09:54:50;16.60;99.90
36816;DHT22;22760;51.910;4.474;2022-09-09T09:57:18;16.60;99.90
36816;DHT22;22760;51.910;4.474;2022-09-09T10:00:02;16.60;99.90
36816;DHT22;22760;51.910;4.474;2022-09-09T10:02:38;16.60;99.90
36816;DHT22;22760;51.910;4.474;2022-09-09T10:05:13;16.50;99.90
36816;DHT22;22760;51.910;4.474;2022-09-09T10:07:41;16.50;99.90
36816;DHT22;22760;51.910;4.474;2022-09-09T10:10:15;16.40;99.90
36816;DHT22;22760;51.910;4.474;2022-09-09T10:12:53;16.30;99.90
36816;DHT22;22760;51.910;4.474;2022-09-09T10:15:32;16.30;99.90
36816;DHT22;22760;51.910;4.474;2022-09-09T10:18:13;16.20;99.90
36816;DHT22;22760;51.910;4.474;2022-09-09T10:20:48;16.20;99.90
36816;DHT22;22760;51.910;4.474;2022-09-09T10:23:28;16.20;99.90
36816;DHT22;22760;51.910;4.474;2022-09-09T10:26:08;16.30;99.90
36816;DHT22;22760;51.910;4.474;2022-09-09T10:28:51;16.30;99.90
36816;DHT22;22760;51.910;4.474;2022-09-09T10:31:27;16.20;99.90
36816;DHT22;22760;51.910;4.474;2022-09-09T10:34:04;16.20;99.90
36816;DHT22;22760;51.910;4.474;2022-09-09T10:36:39;16.20;99.90
36816;DHT22;22760;51.910;4.474;2022-09-09T10:39:18;16.30;99.90
36816;DHT22;22760;51.910;4.474;2022-09-09T10:41:51;16.50;99.90
36816;DHT22;22760;51.910;4.474;2022-09-09T10:44:53;16.30;99.90
36816;DHT22;22760;51.910;4.474;2022-09-09T10:47:43;16.20;99.90
36816;DHT22;22760;51.910;4.474;2022-09-09T10:50:35;16.20;99.90
36816;DHT22;22760;51.910;4.474;2022-09-09T10:53:13;16.10;99.90
36816;DHT22;22760;51.910;4.474;2022-09-09T10:55:43;16.10;99.90
36816;DHT22;22760;51.910;4.474;2022-09-09T10:58:13;16.10;99.90
36816;DHT22;22760;51.910;4.474;2022-09-09T11:00:44;16.10;99.90
36816;DHT22;22760;51.910;4.474;2022-09-09T11:03:18;16.20;99.90
36816;DHT22;22760;51.910;4.474;2022-09-09T11:05:49;16.30;99.90
36816;DHT22;22760;51.910;4.474;2022-09-09T11:08:19;16.40;99.90
36816;DHT22;22760;51.910;4.474;2022-09-09T11:10:51;16.50;99.90
36816;DHT22;22760;51.910;4.474;2022-09-09T11:13:26;16.70;99.90
36816;DHT22;22760;51.910;4.474;2022-09-09T11:16:00;16.80;99.90
36816;DHT22;22760;51.910;4.474;2022-09-09T11:18:31;16.80;99.90
36816;DHT22;22760;51.910;4.474;2022-09-09T11:21:17;17.00;99.90
36816;DHT22;22760;51.910;4.474;2022-09-09T11:23:50;17.00;99.90
36816;DHT22;22760;51.910;4.474;2022-09-09T11:26:28;17.00;99.90
36816;DHT22;22760;51.910;4.474;2022-09-09T11:29:10;17.00;99.90
36816;DHT22;22760;51.910;4.474;2022-09-09T11:31:45;16.90;99.90
36816;DHT22;22760;51.910;4.474;2022-09-09T11:34:22;16.80;99.90
36816;DHT22;22760;51.910;4.474;2022-09-09T11:37:17;16.80;99.90
36816;DHT22;22760;51.910;4.474;2022-09-09T11:40:08;16.80;99.90
36816;DHT22;22760;51.910;4.474;2022-09-09T11:42:40;16.80;99.90
36816;DHT22;22760;51.910;4.474;2022-09-09T11:45:21;16.80;99.90
36816;DHT22;22760;51.910;4.474;2022-09-09T11:47:52;16.70;99.90
36816;DHT22;22760;51.910;4.474;2022-09-09T11:50:39;16.70;99.90
36816;DHT22;22760;51.910;4.474;2022-09-09T11:53:19;16.60;99.90
36816;DHT22;22760;51.910;4.474;2022-09-09T11:55:48;16.50;99.90
36816;DHT22;22760;51.910;4.474;2022-09-09T11:58:26;16.50;99.90
36816;DHT22;22760;51.910;4.474;2022-09-09T12:00:54;16.40;99.90
36816;DHT22;22760;51.910;4.474;2022-09-09T12:03:40;16.30;99.90
36816;DHT22;22760;51.910;4.474;2022-09-09T12:06:13;16.30;99.90
36816;DHT22;22760;51.910;4.474;2022-09-09T12:08:43;16.30;99.90
36816;DHT22;22760;51.910;4.474;2022-09-09T12:11:10;16.30;99.90
36816;DHT22;22760;51.910;4.474;2022-09-09T12:13:37;16.30;99.90
36816;DHT22;22760;51.910;4.474;2022-09-09T12:16:04;16.20;99.90
36816;DHT22;22760;51.910;4.474;2022-09-09T12:18:34;16.30;99.90
36816;DHT22;22760;51.910;4.474;2022-09-09T12:21:06;16.30;99.90
36816;DHT22;22760;51.910;4.474;2022-09-09T12:23:44;16.20;99.90
36816;DHT22;22760;51.910;4.474;2022-09-09T12:26:32;16.20;99.90
36816;DHT22;22760;51.910;4.474;2022-09-09T12:29:08;16.30;99.90
36816;DHT22;22760;51.910;4.474;2022-09-09T12:31:42;16.20;99.90
36816;DHT22;22760;51.910;4.474;2022-09-09T12:34:14;16.20;99.90
36816;DHT22;22760;51.910;4.474;2022-09-09T12:36:45;16.30;99.90
36816;DHT22;22760;51.910;4.474;2022-09-09T12:39:19;16.30;99.90
36816;DHT22;22760;51.910;4.474;2022-09-09T12:41:53;16.30;99.90
36816;DHT22;22760;51.910;4.474;2022-09-09T12:44:23;16.30;99.90
36816;DHT22;22760;51.910;4.474;2022-09-09T12:46:51;16.30;99.90
36816;DHT22;22760;51.910;4.474;2022-09-09T12:49:28;16.30;99.90
36816;DHT22;22760;51.910;4.474;2022-09-09T12:51:56;16.30;99.90
36816;DHT22;22760;51.910;4.474;2022-09-09T12:54:25;16.40;99.90
36816;DHT22;22760;51.910;4.474;2022-09-09T12:56:53;16.40;99.90
36816;DHT22;22760;51.910;4.474;2022-09-09T12:59:25;16.40;99.90
36816;DHT22;22760;51.910;4.474;2022-09-09T13:01:56;16.30;99.90
36816;DHT22;22760;51.910;4.474;2022-09-09T13:04:22;16.20;99.90
36816;DHT22;22760;51.910;4.474;2022-09-09T13:06:49;16.10;99.90
36816;DHT22;22760;51.910;4.474;2022-09-09T13:09:18;16.20;99.90
36816;DHT22;22760;51.910;4.474;2022-09-09T13:11:49;16.40;99.90
36816;DHT22;22760;51.910;4.474;2022-09-09T13:14:18;16.70;99.90
36816;DHT22;22760;51.910;4.474;2022-09-09T13:16:56;16.90;99.90
36816;DHT22;22760;51.910;4.474;2022-09-09T13:19:23;17.20;99.90
36816;DHT22;22760;51.910;4.474;2022-09-09T13:21:53;17.20;99.90
36816;DHT22;22760;51.910;4.474;2022-09-09T13:24:27;17.20;99.90
36816;DHT22;22760;51.910;4.474;2022-09-09T13:26:57;17.10;99.90
36816;DHT22;22760;51.910;4.474;2022-09-09T13:29:24;17.00;99.90
36816;DHT22;22760;51.910;4.474;2022-09-09T13:31:51;17.00;99.90
36816;DHT22;22760;51.910;4.474;2022-09-09T13:34:27;17.00;99.90
36816;DHT22;22760;51.910;4.474;2022-09-09T13:36:58;17.00;99.90
36816;DHT22;22760;51.910;4.474;2022-09-09T13:39:27;16.90;99.90
36816;DHT22;22760;51.910;4.474;2022-09-09T13:41:54;16.80;99.90
36816;DHT22;22760;51.910;4.474;2022-09-09T13:44:25;16.80;99.90
36816;DHT22;22760;51.910;4.474;2022-09-09T13:47:01;16.70;99.90
36816;DHT22;22760;51.910;4.474;2022-09-09T13:49:29;16.60;99.90
36816;DHT22;22760;51.910;4.474;2022-09-09T13:52:09;16.60;99.90
36816;DHT22;22760;51.910;4.474;2022-09-09T13:54:36;16.50;99.90
36816;DHT22;22760;51.910;4.474;2022-09-09T13:57:04;16.50;99.90
36816;DHT22;22760;51.910;4.474;2022-09-09T13:59:32;16.40;99.90
36816;DHT22;22760;51.910;4.474;2022-09-09T14:01:59;16.40;99.90
36816;DHT22;22760;51.910;4.474;2022-09-09T14:04:27;16.40;99.90
36816;DHT22;22760;51.910;4.474;2022-09-09T14:06:55;16.40;99.90
36816;DHT22;22760;51.910;4.474;2022-09-09T14:09:22;16.40;99.90
36816;DHT22;22760;51.910;4.474;2022-09-09T14:11:48;16.30;99.90
36816;DHT22;22760;51.910;4.474;2022-09-09T14:14:15;16.40;99.90
36816;DHT22;22760;51.910;4.474;2022-09-09T14:16:43;16.50;99.90
36816;DHT22;22760;51.910;4.474;2022-09-09T14:19:10;16.50;99.90
36816;DHT22;22760;51.910;4.474;2022-09-09T14:21:37;16.60;99.90
36816;DHT22;22760;51.910;4.474;2022-09-09T14:24:04;16.50;99.90
36816;DHT22;22760;51.910;4.474;2022-09-09T14:26:31;16.60;99.90
36816;DHT22;22760;51.910;4.474;2022-09-09T14:28:58;16.70;99.90
36816;DHT22;22760;51.910;4.474;2022-09-09T14:31:26;16.70;99.90
36816;DHT22;22760;51.910;4.474;2022-09-09T14:33:54;16.80;99.90
36816;DHT22;22760;51.910;4.474;2022-09-09T14:36:21;17.00;99.90
36816;DHT22;22760;51.910;4.474;2022-09-09T14:38:48;17.00;99.90
36816;DHT22;22760;51.910;4.474;2022-09-09T14:41:17;17.10;99.90
36816;DHT22;22760;51.910;4.474;2022-09-09T14:43:45;17.30;99.90
36816;DHT22;22760;51.910;4.474;2022-09-09T14:46:14;17.30;99.90
36816;DHT22;22760;51.910;4.474;2022-09-09T14:48:41;17.40;99.90
36816;DHT22;22760;51.910;4.474;2022-09-09T14:51:12;17.40;99.90
36816;DHT22;22760;51.910;4.474;2022-09-09T14:53:41;17.50;99.90
36816;DHT22;22760;51.910;4.474;2022-09-09T14:56:09;17.50;99.90
36816;DHT22;22760;51.910;4.474;2022-09-09T14:58:36;17.70;99.90
36816;DHT22;22760;51.910;4.474;2022-09-09T15:01:04;17.70;99.90
36816;DHT22;22760;51.910;4.474;2022-09-09T15:03:32;17.60;99.90
36816;DHT22;22760;51.910;4.474;2022-09-09T15:06:04;17.60;99.90
36816;DHT22;22760;51.910;4.474;2022-09-09T15:08:32;17.50;99.90
36816;DHT22;22760;51.910;4.474;2022-09-09T15:10:59;17.70;99.90
36816;DHT22;22760;51.910;4.474;2022-09-09T15:13:27;17.70;99.90
36816;DHT22;22760;51.910;4.474;2022-09-09T15:15:53;17.70;99.90
36816;DHT22;22760;51.910;4.474;2022-09-09T15:18:20;17.70;99.90
36816;DHT22;22760;51.910;4.474;2022-09-09T15:20:47;17.60;99.90
36816;DHT22;22760;51.910;4.474;2022-09-09T15:23:14;17.60;99.90
36816;DHT22;22760;51.910;4.474;2022-09-09T15:25:51;17.60;99.90
36816;DHT22;22760;51.910;4.474;2022-09-09T15:28:18;17.80;99.90
36816;DHT22;22760;51.910;4.474;2022-09-09T15:30:47;17.70;99.90
36816;DHT22;22760;51.910;4.474;2022-09-09T15:33:14;17.70;99.90
36816;DHT22;22760;51.910;4.474;2022-09-09T15:35:41;17.60;99.90
36816;DHT22;22760;51.910;4.474;2022-09-09T15:38:08;17.60;99.90
36816;DHT22;22760;51.910;4.474;2022-09-09T15:40:35;17.60;99.90
36816;DHT22;22760;51.910;4.474;2022-09-09T15:43:05;17.60;99.90
36816;DHT22;22760;51.910;4.474;2022-09-09T15:45:31;17.60;99.90
36816;DHT22;22760;51.910;4.474;2022-09-09T15:47:59;17.60;99.90
36816;DHT22;22760;51.910;4.474;2022-09-09T15:50:25;17.60;99.90
36816;DHT22;22760;51.910;4.474;2022-09-09T15:52:52;17.50;99.90
36816;DHT22;22760;51.910;4.474;2022-09-09T15:55:19;17.40;99.90